Time;durP1;ratioP1;P1;durP2;ratioP2;P2;SDS_P1;SDS_P2;PMS_P1;PMS_P2;Temp;Humidity;BMP_temperature;BMP_pressure;BME280_temperature;BME280_humidity;BME280_pressure;Samples;Min_cycle;Max_cycle;Signal;HPM_P1;HPM_P2
2022/05/04 00:00:41;;;;;;;121.38;108.28;;;18.80;64.10;;;;;;4984748;28;20487;-91
2022/05/04 00:03:06;;;;;;;121.25;108.15;;;18.90;64.10;;;;;;4963639;28;20030;-91
2022/05/04 00:05:32;;;;;;;116.78;104.15;;;18.90;64.10;;;;;;4975845;28;20021;-91
2022/05/04 00:07:57;;;;;;;115.68;102.93;;;19.70;64.50;;;;;;4978652;28;20040;-91
2022/05/04 00:10:24;;;;;;;112.60;100.75;;;18.80;64.00;;;;;;4981905;28;20025;-90
2022/05/04 00:12:52;;;;;;;113.47;101.13;;;18.90;64.00;;;;;;4966739;28;20270;-91
2022/05/04 00:15:20;;;;;;;111.95;99.00;;;18.90;64.10;;;;;;4980423;28;20044;-91
2022/05/04 00:17:46;;;;;;;109.15;97.35;;;18.90;64.10;;;;;;4985050;28;20065;-91
2022/05/04 00:20:22;;;;;;;106.60;95.10;;;18.90;63.90;;;;;;4976927;28;20161;-91
2022/05/04 00:22:50;;;;;;;106.50;94.88;;;18.80;63.90;;;;;;4978405;28;20823;-91
2022/05/04 00:27:54;;;;;;;104.05;92.75;;;18.80;63.70;;;;;;5273405;23;20129;-89
2022/05/04 00:30:19;;;;;;;98.78;88.07;;;19.00;63.90;;;;;;4966735;28;20062;-89
2022/05/04 00:32:46;;;;;;;100.10;89.38;;;19.10;64.00;;;;;;4959968;28;20188;-89
2022/05/04 00:35:11;;;;;;;97.35;86.60;;;20.30;64.70;;;;;;4981216;28;20174;-89
2022/05/04 00:40:15;;;;;;;99.10;88.32;;;18.80;63.60;;;;;;5713836;22;20062;-92
2022/05/04 00:42:47;;;;;;;92.95;82.88;;;19.00;63.90;;;;;;4969355;28;20038;-89
2022/05/04 00:45:13;;;;;;;93.68;83.55;;;19.60;64.30;;;;;;4982041;28;20587;-90
2022/05/04 00:47:40;;;;;;;93.05;82.70;;;19.10;63.80;;;;;;4978426;28;20038;-88
2022/05/04 00:50:07;;;;;;;91.15;81.30;;;18.10;63.30;;;;;;4979252;28;20030;-90
2022/05/04 00:52:36;;;;;;;90.18;80.25;;;18.80;63.50;;;;;;4967444;28;20026;-89
2022/05/04 00:55:03;;;;;;;89.65;79.90;;;18.80;63.50;;;;;;4983700;28;20476;-90
2022/05/04 01:00:19;;;;;;;85.18;75.97;;;18.80;63.50;;;;;;4963512;28;20179;-89
2022/05/04 01:02:44;;;;;;;85.53;76.40;;;18.80;63.50;;;;;;4980232;28;20026;-89
2022/05/04 01:05:10;;;;;;;83.20;74.18;;;18.80;63.50;;;;;;4964227;28;20022;-90
2022/05/04 01:07:39;;;;;;;79.68;71.15;;;18.80;63.50;;;;;;4965483;28;20041;-89
2022/05/04 01:10:08;;;;;;;81.50;72.60;;;18.10;63.00;;;;;;4978309;28;20057;-90
2022/05/04 01:12:34;;;;;;;79.38;70.68;;;18.80;63.50;;;;;;4980481;28;20789;-90
2022/05/04 01:15:00;;;;;;;78.97;70.47;;;18.80;63.50;;;;;;4951188;28;20364;-90
2022/05/04 01:17:27;;;;;;;78.85;70.43;;;18.80;63.30;;;;;;4967062;28;20084;-90
2022/05/04 01:19:52;;;;;;;80.93;71.97;;;18.80;63.30;;;;;;4982677;28;20058;-90
2022/05/04 01:22:18;;;;;;;75.20;67.20;;;18.80;63.20;;;;;;4981751;28;20134;-90
2022/05/04 01:24:43;;;;;;;74.25;66.38;;;18.80;63.20;;;;;;4980874;28;20078;-90
2022/05/04 01:27:12;;;;;;;74.60;66.53;;;18.80;63.30;;;;;;4980913;28;20685;-90
2022/05/04 01:29:38;;;;;;;72.90;65.03;;;18.80;63.30;;;;;;4965338;28;20070;-90
2022/05/04 01:32:04;;;;;;;75.53;66.88;;;19.20;63.50;;;;;;4979826;28;20153;-89
2022/05/04 01:34:32;;;;;;;71.93;63.95;;;18.80;63.20;;;;;;4982139;28;20128;-90
2022/05/04 01:36:57;;;;;;;70.95;63.30;;;18.60;63.20;;;;;;4951259;28;20053;-90
2022/05/04 01:39:23;;;;;;;71.40;61.95;;;18.60;63.00;;;;;;4976863;28;20729;-89
2022/05/04 01:42:03;;;;;;;69.03;61.53;;;18.80;63.10;;;;;;4951505;28;20516;-90
2022/05/04 01:44:33;;;;;;;67.65;60.28;;;18.80;63.10;;;;;;4950939;28;20026;-90
2022/05/04 01:46:59;;;;;;;68.35;58.67;;;19.10;63.30;;;;;;4968068;28;20030;-90
2022/05/04 01:49:25;;;;;;;64.90;57.90;;;18.80;63.10;;;;;;4946142;28;20355;-89
2022/05/04 01:51:50;;;;;;;64.63;57.00;;;18.80;63.20;;;;;;4945350;28;20034;-90
2022/05/04 01:54:18;;;;;;;64.63;57.20;;;18.80;63.00;;;;;;4961404;28;20054;-89
2022/05/04 01:56:46;;;;;;;61.85;55.28;;;18.70;63.20;;;;;;4961811;28;20057;-90
2022/05/04 01:59:12;;;;;;;63.70;56.80;;;18.80;63.00;;;;;;4952966;28;20579;-91
2022/05/04 02:01:38;;;;;;;60.95;54.50;;;19.00;63.20;;;;;;4953538;28;20022;-90
2022/05/04 02:04:04;;;;;;;61.65;52.67;;;18.80;63.00;;;;;;4955541;28;20034;-90
2022/05/04 02:06:32;;;;;;;58.05;51.83;;;18.80;63.00;;;;;;4942894;28;20593;-90
2022/05/04 02:08:58;;;;;;;57.78;51.67;;;18.70;62.90;;;;;;4966295;28;20030;-90
2022/05/04 02:11:24;;;;;;;59.28;53.00;;;19.10;63.20;;;;;;4961018;28;20523;-90
2022/05/04 02:13:50;;;;;;;59.45;52.83;;;19.40;63.30;;;;;;4953157;28;20031;-89
2022/05/04 02:16:15;;;;;;;56.70;50.58;;;18.80;63.00;;;;;;4949857;28;21499;-90
2022/05/04 02:18:41;;;;;;;55.20;49.28;;;18.00;62.60;;;;;;4961479;28;22239;-90
2022/05/04 02:21:07;;;;;;;56.22;50.20;;;18.80;62.90;;;;;;4973184;28;20547;-90
2022/05/04 02:23:32;;;;;;;53.85;48.08;;;18.70;62.80;;;;;;4945050;28;20277;-91
2022/05/04 02:25:58;;;;;;;54.72;48.97;;;18.70;62.90;;;;;;4941272;28;20536;-90
2022/05/04 02:28:23;;;;;;;53.30;47.45;;;18.30;62.60;;;;;;4965840;28;20503;-90
2022/05/04 02:30:49;;;;;;;52.67;46.97;;;19.20;63.20;;;;;;4981152;28;20033;-90
2022/05/04 02:33:14;;;;;;;52.10;46.47;;;18.80;62.80;;;;;;4945105;28;20023;-89
2022/05/04 02:38:24;;;;;;;51.45;45.83;;;18.70;62.60;;;;;;4962104;28;20036;-90
2022/05/04 02:40:49;;;;;;;50.67;44.60;;;18.80;62.80;;;;;;4977293;28;20038;-89
2022/05/04 02:43:15;;;;;;;49.00;43.80;;;18.70;62.70;;;;;;4932402;28;20803;-91
2022/05/04 02:45:41;;;;;;;49.05;43.85;;;18.10;62.30;;;;;;4954531;28;20026;-90
2022/05/04 02:48:09;;;;;;;49.72;44.17;;;18.70;62.60;;;;;;4981002;28;20146;-89
2022/05/04 02:50:35;;;;;;;48.80;43.13;;;18.70;62.80;;;;;;4964414;28;20027;-90
2022/05/04 02:53:04;;;;;;;48.55;43.05;;;18.80;62.70;;;;;;4982468;28;20049;-90
2022/05/04 02:55:30;;;;;;;45.78;40.78;;;18.50;62.50;;;;;;4970732;28;20431;-90
2022/05/04 02:57:55;;;;;;;47.83;42.20;;;18.80;62.70;;;;;;4960875;28;20041;-90
2022/05/04 03:00:21;;;;;;;45.53;40.63;;;18.80;62.70;;;;;;4961081;28;20455;-90
2022/05/04 03:02:46;;;;;;;45.47;40.53;;;18.70;62.60;;;;;;4951630;28;20026;-90
2022/05/04 03:05:14;;;;;;;46.25;40.58;;;18.70;62.60;;;;;;4971902;28;20027;-90
2022/05/04 03:07:42;;;;;;;45.35;40.58;;;18.80;62.80;;;;;;4955213;28;20056;-90
2022/05/04 03:10:10;;;;;;;44.15;39.35;;;19.50;63.20;;;;;;4958112;28;20026;-89
2022/05/04 03:12:36;;;;;;;44.60;39.80;;;18.80;62.70;;;;;;4970459;28;20763;-90
2022/05/04 03:15:04;;;;;;;42.55;37.85;;;18.70;62.50;;;;;;4986946;28;20113;-90
2022/05/04 03:17:30;;;;;;;43.17;38.58;;;19.20;63.10;;;;;;4967139;28;20046;-89
2022/05/04 03:19:56;;;;;;;42.80;38.05;;;19.60;63.10;;;;;;4950914;28;20057;-90
2022/05/04 03:22:21;;;;;;;39.70;35.67;;;18.60;62.50;;;;;;4966196;28;20045;-90
2022/05/04 03:24:47;;;;;;;43.17;37.15;;;18.70;62.50;;;;;;4986952;28;20018;-91
2022/05/04 03:27:12;;;;;;;40.85;36.47;;;18.70;62.50;;;;;;4963442;28;20034;-88
2022/05/04 03:29:38;;;;;;;39.72;35.53;;;18.70;62.50;;;;;;4953656;28;20314;-87
2022/05/04 03:32:04;;;;;;;39.60;35.30;;;18.70;62.50;;;;;;4961641;28;20732;-89
2022/05/04 03:34:30;;;;;;;40.72;36.17;;;18.70;62.50;;;;;;4965443;28;20053;-90
2022/05/04 03:36:57;;;;;;;38.65;34.55;;;18.70;62.50;;;;;;4979880;28;20062;-89
2022/05/04 03:39:23;;;;;;;39.13;35.00;;;18.70;62.40;;;;;;4977283;28;20034;-89
2022/05/04 03:41:49;;;;;;;39.67;33.80;;;18.70;62.40;;;;;;4952836;28;20039;-89
2022/05/04 03:44:16;;;;;;;38.53;34.20;;;18.70;62.40;;;;;;4950404;28;20022;-89
2022/05/04 03:46:45;;;;;;;38.35;34.17;;;18.70;62.40;;;;;;4985579;28;20014;-90
2022/05/04 03:49:12;;;;;;;38.13;33.97;;;18.70;62.50;;;;;;4946920;28;20034;-91
2022/05/04 03:51:37;;;;;;;37.30;33.30;;;18.70;62.50;;;;;;4949298;28;20037;-89
2022/05/04 03:54:03;;;;;;;36.00;32.22;;;18.80;62.50;;;;;;4962304;28;20030;-88
2022/05/04 03:56:28;;;;;;;36.05;32.15;;;18.70;62.50;;;;;;4973139;28;20524;-88
2022/05/04 03:58:54;;;;;;;38.75;34.53;;;18.70;62.50;;;;;;4966858;28;20038;-87
2022/05/04 04:01:20;;;;;;;38.25;32.85;;;19.30;62.80;;;;;;4964903;28;20477;-88
2022/05/04 04:03:45;;;;;;;35.63;31.65;;;19.60;63.00;;;;;;4968160;28;20301;-90
2022/05/04 04:06:11;;;;;;;33.85;30.23;;;19.70;63.00;;;;;;4947314;28;20053;-90
2022/05/04 04:08:37;;;;;;;37.55;31.58;;;18.80;62.50;;;;;;4981099;28;20038;-89
2022/05/04 04:11:03;;;;;;;32.67;29.25;;;18.80;62.60;;;;;;4948546;28;20572;-90
2022/05/04 04:13:29;;;;;;;32.83;29.35;;;18.80;62.70;;;;;;4954930;28;20560;-90
2022/05/04 04:15:54;;;;;;;37.33;30.80;;;18.80;62.60;;;;;;4950919;28;20038;-89
2022/05/04 04:18:20;;;;;;;34.15;29.70;;;18.80;62.60;;;;;;4931077;28;20040;-89
2022/05/04 04:23:31;;;;;;;33.70;30.15;;;18.80;62.70;;;;;;4964878;28;20050;-89
2022/05/04 04:25:56;;;;;;;32.55;28.52;;;18.80;62.70;;;;;;4948938;28;20026;-90
2022/05/04 04:28:22;;;;;;;31.38;27.92;;;18.80;62.70;;;;;;4978556;28;20038;-90
2022/05/04 04:30:48;;;;;;;32.85;29.13;;;19.40;63.00;;;;;;4978565;28;20088;-89
2022/05/04 04:33:13;;;;;;;30.85;27.55;;;19.60;64.00;;;;;;4935934;28;20038;-91
2022/05/04 04:35:39;;;;;;;33.42;28.17;;;18.80;62.70;;;;;;4952302;28;20064;-91
2022/05/04 04:38:05;;;;;;;31.30;27.92;;;18.80;62.70;;;;;;4984031;28;20038;-90
2022/05/04 04:40:30;;;;;;;31.25;27.85;;;18.80;62.70;;;;;;4965910;28;20050;-90
2022/05/04 04:42:56;;;;;;;32.40;27.63;;;18.80;62.70;;;;;;4955906;28;20026;-89
2022/05/04 04:45:21;;;;;;;36.03;28.20;;;18.80;62.70;;;;;;4968508;28;20191;-90
2022/05/04 04:47:47;;;;;;;30.45;25.63;;;18.80;62.60;;;;;;4961204;28;20508;-90
2022/05/04 04:50:13;;;;;;;29.80;25.33;;;18.80;62.70;;;;;;4950579;28;20488;-90
2022/05/04 04:52:42;;;;;;;29.80;26.33;;;18.80;62.70;;;;;;4954611;28;20084;-90
2022/05/04 04:55:08;;;;;;;28.10;25.15;;;18.80;62.70;;;;;;4983997;28;20040;-90
2022/05/04 04:57:36;;;;;;;32.67;25.33;;;18.80;62.70;;;;;;4976937;28;20030;-90
2022/05/04 05:00:03;;;;;;;29.77;25.42;;;18.80;62.70;;;;;;4963350;28;20393;-89
2022/05/04 05:02:29;;;;;;;28.92;25.08;;;18.80;62.70;;;;;;4976133;28;20014;-90
2022/05/04 05:04:54;;;;;;;27.10;24.02;;;19.30;63.00;;;;;;4960932;28;20092;-90
2022/05/04 05:07:20;;;;;;;31.00;24.75;;;18.80;62.70;;;;;;4949680;28;20124;-90
2022/05/04 05:09:46;;;;;;;27.17;23.73;;;18.80;62.70;;;;;;4981916;28;20520;-90
2022/05/04 05:12:11;;;;;;;28.55;25.15;;;18.80;62.70;;;;;;4974758;28;20142;-91
2022/05/04 05:17:21;;;;;;;26.85;23.45;;;18.80;62.70;;;;;;4957828;28;20077;-88
2022/05/04 05:19:46;;;;;;;27.85;24.40;;;18.80;62.70;;;;;;4967425;28;20271;-90
2022/05/04 05:22:15;;;;;;;26.67;23.50;;;18.80;62.70;;;;;;4974915;28;20046;-90
2022/05/04 05:24:40;;;;;;;26.30;23.55;;;18.60;62.80;;;;;;4970975;28;20030;-89
2022/05/04 05:27:09;;;;;;;28.13;23.85;;;18.80;62.80;;;;;;4958169;28;20540;-90
2022/05/04 05:29:35;;;;;;;27.35;22.45;;;18.20;62.50;;;;;;4955262;28;20040;-90
2022/05/04 05:32:00;;;;;;;27.20;23.90;;;18.80;62.80;;;;;;4944639;28;20105;-90
2022/05/04 05:34:28;;;;;;;25.65;22.92;;;18.90;62.80;;;;;;4953925;28;20312;-89
2022/05/04 05:36:54;;;;;;;25.17;22.15;;;19.40;63.20;;;;;;4955179;28;20019;-89
2022/05/04 05:39:19;;;;;;;29.05;23.10;;;18.80;62.80;;;;;;4959067;28;20042;-89
2022/05/04 05:41:45;;;;;;;24.48;21.88;;;18.80;62.80;;;;;;4953390;28;20494;-88
2022/05/04 05:44:10;;;;;;;25.45;22.58;;;18.80;62.70;;;;;;4954376;28;20452;-89
2022/05/04 05:46:36;;;;;;;28.95;22.10;;;18.80;62.80;;;;;;4977941;28;20030;-89
2022/05/04 05:49:02;;;;;;;26.02;22.48;;;18.80;62.80;;;;;;4979103;28;20042;-89
2022/05/04 05:51:27;;;;;;;25.48;21.60;;;19.30;63.10;;;;;;4967396;28;20085;-89
2022/05/04 05:53:53;;;;;;;26.70;22.42;;;19.30;63.10;;;;;;4984475;28;20112;-89
2022/05/04 05:56:18;;;;;;;24.67;21.63;;;18.90;63.50;;;;;;4981217;28;20258;-89
2022/05/04 05:58:47;;;;;;;27.25;22.20;;;18.80;62.80;;;;;;4966213;28;20417;-89
2022/05/04 06:01:12;;;;;;;24.38;21.75;;;18.80;62.80;;;;;;4969883;28;20041;-88
2022/05/04 06:03:38;;;;;;;23.98;21.35;;;18.80;62.80;;;;;;4968403;28;20027;-88
2022/05/04 06:06:03;;;;;;;25.88;21.60;;;18.80;62.90;;;;;;4952304;28;20037;-89
2022/05/04 06:08:29;;;;;;;24.50;20.95;;;18.80;62.90;;;;;;4981496;28;20572;-88
2022/05/04 06:10:54;;;;;;;23.65;20.45;;;18.80;63.00;;;;;;4962936;28;20076;-89
2022/05/04 06:13:20;;;;;;;22.88;19.80;;;19.70;63.40;;;;;;4948138;28;20117;-89
2022/05/04 06:15:45;;;;;;;25.42;20.48;;;18.80;63.00;;;;;;4979222;28;20637;-89
2022/05/04 06:18:12;;;;;;;27.65;20.80;;;18.80;63.00;;;;;;4978215;28;20419;-88
2022/05/04 06:20:38;;;;;;;23.40;19.80;;;18.80;63.00;;;;;;4971527;28;20034;-89
2022/05/04 06:23:04;;;;;;;25.33;21.45;;;18.80;63.00;;;;;;4967419;28;20030;-87
2022/05/04 06:25:29;;;;;;;21.88;19.63;;;18.80;63.00;;;;;;4970456;28;20062;-89
2022/05/04 06:27:55;;;;;;;21.85;19.52;;;19.70;63.50;;;;;;4963995;28;20484;-89
2022/05/04 06:35:49;;;;;;;23.90;19.77;;;18.80;63.00;;;;;;4982818;28;20890;-89
2022/05/04 06:38:14;;;;;;;22.52;19.33;;;19.80;63.50;;;;;;4963503;28;20117;-89
2022/05/04 06:40:40;;;;;;;21.98;19.48;;;18.80;63.00;;;;;;4966950;28;20313;-89
2022/05/04 06:43:05;;;;;;;20.98;17.63;;;20.00;63.70;;;;;;4957894;28;20022;-89
2022/05/04 06:45:31;;;;;;;20.73;18.38;;;17.80;62.50;;;;;;4977108;28;20034;-89
2022/05/04 06:47:57;;;;;;;19.65;17.52;;;19.10;63.10;;;;;;4984439;28;20433;-89
2022/05/04 06:50:22;;;;;;;27.10;18.67;;;18.80;63.00;;;;;;4965787;28;20030;-89
2022/05/04 06:52:48;;;;;;;20.70;18.50;;;18.40;62.80;;;;;;4998583;28;20029;-88
2022/05/04 06:55:13;;;;;;;20.40;18.17;;;18.80;63.10;;;;;;4964570;28;20331;-88
2022/05/04 06:57:39;;;;;;;21.15;17.52;;;19.10;63.20;;;;;;4961302;28;20307;-89
2022/05/04 07:00:05;;;;;;;22.42;18.58;;;18.90;63.10;;;;;;4966309;28;20161;-88
2022/05/04 07:02:33;;;;;;;19.27;17.05;;;18.80;63.10;;;;;;4981699;28;20103;-88
2022/05/04 07:05:02;;;;;;;20.63;18.02;;;18.80;63.10;;;;;;4965638;28;20037;-88
2022/05/04 07:07:27;;;;;;;22.00;17.40;;;19.60;63.50;;;;;;4996766;28;20035;-88
2022/05/04 07:09:53;;;;;;;21.05;17.33;;;18.80;63.20;;;;;;4965545;28;20109;-89
2022/05/04 07:12:19;;;;;;;20.48;18.10;;;18.80;63.10;;;;;;4976338;28;20654;-88
2022/05/04 07:14:45;;;;;;;20.92;17.83;;;19.80;63.60;;;;;;4978938;28;20377;-88
2022/05/04 07:17:10;;;;;;;21.75;17.30;;;19.10;63.30;;;;;;4966588;28;20030;-88
2022/05/04 07:19:36;;;;;;;18.65;16.63;;;19.40;63.50;;;;;;4961692;28;20428;-88
2022/05/04 07:22:01;;;;;;;21.20;17.27;;;18.90;63.20;;;;;;4984839;28;20492;-88
2022/05/04 07:24:27;;;;;;;20.50;16.30;;;18.80;63.10;;;;;;4976110;28;20868;-88
2022/05/04 07:26:52;;;;;;;20.42;16.63;;;18.90;63.10;;;;;;4965050;28;20062;-87
2022/05/04 07:29:18;;;;;;;19.92;17.13;;;19.10;63.30;;;;;;4976315;28;20374;-87
2022/05/04 07:31:43;;;;;;;18.77;16.83;;;18.80;63.80;;;;;;4999631;28;20384;-89
2022/05/04 07:34:09;;;;;;;21.52;17.33;;;18.90;63.20;;;;;;4958192;28;20053;-89
2022/05/04 07:36:35;;;;;;;20.88;16.65;;;18.50;62.90;;;;;;4964154;28;20034;-88
2022/05/04 07:39:00;;;;;;;19.10;15.20;;;19.20;63.40;;;;;;4979121;28;20760;-88
2022/05/04 07:44:10;;;;;;;18.85;16.13;;;19.50;63.50;;;;;;4965042;28;20110;-87
2022/05/04 07:46:35;;;;;;;20.38;16.40;;;18.80;63.20;;;;;;4957593;28;20113;-88
2022/05/04 07:49:01;;;;;;;18.65;15.85;;;19.40;63.50;;;;;;4962491;28;20535;-88
2022/05/04 07:51:27;;;;;;;21.45;15.38;;;18.80;63.20;;;;;;4977720;28;20374;-89
2022/05/04 07:53:53;;;;;;;19.73;15.80;;;18.80;63.10;;;;;;4976702;28;20045;-89
2022/05/04 07:56:18;;;;;;;20.58;15.52;;;18.80;63.30;;;;;;4974909;28;20035;-87
2022/05/04 07:58:44;;;;;;;17.05;15.18;;;18.80;63.20;;;;;;4965679;28;20034;-87
2022/05/04 08:06:37;;;;;;;18.95;15.75;;;18.90;63.20;;;;;;4978413;28;20447;-87
2022/05/04 08:09:03;;;;;;;18.27;15.07;;;18.90;63.80;;;;;;4976228;28;20137;-87
2022/05/04 08:11:29;;;;;;;16.73;14.98;;;18.90;63.20;;;;;;4974932;28;20096;-87
2022/05/04 08:13:55;;;;;;;19.98;15.25;;;18.90;63.20;;;;;;4964506;28;20030;-86
2022/05/04 08:16:20;;;;;;;16.60;14.65;;;18.90;63.30;;;;;;4977418;28;20061;-87
2022/05/04 08:18:47;;;;;;;22.25;15.15;;;19.90;63.80;;;;;;4966778;28;20747;-87
2022/05/04 08:21:12;;;;;;;17.23;15.20;;;19.40;63.60;;;;;;4999594;28;20030;-87
2022/05/04 08:23:38;;;;;;;18.52;14.82;;;19.70;63.70;;;;;;4965258;28;20567;-88
2022/05/04 08:26:04;;;;;;;18.80;14.60;;;18.90;63.30;;;;;;4972291;28;20022;-88
2022/05/04 08:28:30;;;;;;;15.68;13.35;;;18.90;63.30;;;;;;4918183;28;20583;-87
2022/05/04 08:30:56;;;;;;;18.17;14.20;;;18.90;63.30;;;;;;4951959;28;20076;-87
2022/05/04 08:33:27;;;;;;;16.20;14.18;;;19.80;63.90;;;;;;4946886;28;20030;-88
2022/05/04 08:35:52;;;;;;;17.38;13.85;;;18.90;63.40;;;;;;4965028;28;20027;-87
2022/05/04 08:38:22;;;;;;;20.20;14.50;;;19.40;63.70;;;;;;4954130;28;20501;-87
2022/05/04 08:40:47;;;;;;;16.30;13.30;;;19.30;63.70;;;;;;4960067;28;20129;-87
2022/05/04 08:43:13;;;;;;;15.65;13.75;;;18.90;63.50;;;;;;4974859;28;20138;-87
2022/05/04 08:45:39;;;;;;;16.95;13.30;;;18.90;63.50;;;;;;4964202;28;20030;-87
2022/05/04 08:48:11;;;;;;;16.92;13.23;;;19.00;63.60;;;;;;4981040;28;20040;-87
2022/05/04 08:50:43;;;;;;;15.40;13.77;;;18.90;63.90;;;;;;4959701;28;20041;-87
2022/05/04 08:53:08;;;;;;;14.35;12.85;;;18.90;63.50;;;;;;4968402;28;20049;-87
2022/05/04 08:55:35;;;;;;;15.68;13.60;;;20.10;64.40;;;;;;4964692;28;20480;-87
2022/05/04 08:58:00;;;;;;;15.95;12.55;;;19.70;64.00;;;;;;4963726;28;20117;-87
2022/05/04 09:00:26;;;;;;;14.73;12.65;;;18.90;63.60;;;;;;4974849;28;20172;-87
2022/05/04 09:02:51;;;;;;;14.75;12.52;;;18.90;63.60;;;;;;4965341;28;20124;-87
2022/05/04 09:05:23;;;;;;;14.73;12.52;;;18.90;63.60;;;;;;4964389;28;20034;-87
2022/05/04 09:07:50;;;;;;;17.35;13.13;;;18.90;63.60;;;;;;4996237;28;20056;-87
2022/05/04 09:10:36;;;;;;;13.40;12.00;;;19.20;63.80;;;;;;4964930;28;20189;-87
2022/05/04 09:13:03;;;;;;;13.85;12.43;;;19.50;63.90;;;;;;4977328;28;20046;-87
2022/05/04 09:15:31;;;;;;;16.42;12.45;;;18.90;63.70;;;;;;4966008;28;20239;-87
2022/05/04 09:18:20;;;;;;;16.23;13.27;;;19.00;63.70;;;;;;4963849;28;20038;-87
2022/05/04 09:20:53;;;;;;;14.75;12.80;;;19.70;64.10;;;;;;4954704;28;20085;-87
2022/05/04 09:23:33;;;;;;;15.60;12.00;;;18.90;63.70;;;;;;4985358;28;20058;-87
2022/05/04 09:26:07;;;;;;;12.88;11.43;;;19.40;64.10;;;;;;4977189;28;20038;-87
2022/05/04 09:28:34;;;;;;;15.35;12.30;;;19.60;64.20;;;;;;4970693;28;20023;-88
2022/05/04 09:31:04;;;;;;;14.57;11.82;;;18.80;63.80;;;;;;4979214;28;20527;-87
2022/05/04 09:33:32;;;;;;;15.10;11.52;;;19.90;64.40;;;;;;4967500;28;20066;-88
2022/05/04 09:35:58;;;;;;;14.85;12.48;;;19.30;64.20;;;;;;4959072;28;20035;-87
2022/05/04 09:46:46;;;;;;;15.70;11.18;;;19.20;64.20;;;;;;4960082;28;20057;-87
2022/05/04 09:49:22;;;;;;;18.25;12.75;;;18.70;63.90;;;;;;4963974;28;20034;-87
2022/05/04 09:51:51;;;;;;;14.15;11.77;;;19.00;64.00;;;;;;4961436;28;20269;-87
2022/05/04 09:54:30;;;;;;;19.20;12.07;;;19.00;64.00;;;;;;4960981;28;20396;-88
2022/05/04 09:56:56;;;;;;;23.73;13.07;;;19.00;64.10;;;;;;4966385;28;20121;-87
2022/05/04 09:59:26;;;;;;;23.35;14.02;;;19.00;64.10;;;;;;4965065;28;20126;-87
2022/05/04 10:01:53;;;;;;;24.90;13.52;;;18.90;64.20;;;;;;4973703;28;20049;-87
2022/05/04 10:04:20;;;;;;;22.98;12.95;;;19.70;64.60;;;;;;4974349;28;20716;-87
2022/05/04 10:06:53;;;;;;;27.73;13.73;;;19.00;64.20;;;;;;4961675;28;20496;-87
2022/05/04 10:09:19;;;;;;;25.33;14.20;;;19.20;64.40;;;;;;4979336;28;20489;-87
2022/05/04 10:11:45;;;;;;;30.48;15.15;;;19.00;64.20;;;;;;4960002;28;20059;-88
2022/05/04 10:14:13;;;;;;;30.23;15.63;;;19.40;64.50;;;;;;4966805;28;20221;-89
2022/05/04 10:16:52;;;;;;;27.15;14.00;;;19.10;64.30;;;;;;4984892;28;20042;-87
2022/05/04 10:19:38;;;;;;;30.15;14.90;;;19.00;64.30;;;;;;4978089;28;20039;-88
2022/05/04 10:22:05;;;;;;;28.45;14.77;;;19.00;64.40;;;;;;4979187;28;20042;-88
2022/05/04 10:24:35;;;;;;;28.00;15.57;;;19.00;64.40;;;;;;4966421;28;20033;-88
2022/05/04 10:27:03;;;;;;;33.90;16.48;;;19.00;64.40;;;;;;4957378;28;20386;-87
2022/05/04 10:32:32;;;;;;;;;;;19.90;65.00;;;;;;4980970;28;20503;-88
2022/05/04 10:35:20;;;;;;;33.75;15.10;;;19.10;64.40;;;;;;4971948;28;19925;-87
2022/05/04 10:38:00;;;;;;;33.60;16.70;;;19.00;64.40;;;;;;4993410;28;20064;-88
2022/05/04 10:40:38;;;;;;;36.35;15.93;;;19.00;64.60;;;;;;4973070;28;20496;-88
2022/05/04 10:43:08;;;;;;;30.15;16.63;;;19.00;64.50;;;;;;4973050;28;20037;-87
2022/05/04 10:45:41;;;;;;;38.20;17.23;;;19.00;64.60;;;;;;4965045;28;20026;-88
2022/05/04 10:48:16;;;;;;;34.08;16.42;;;19.00;64.60;;;;;;4952830;28;20042;-88
2022/05/04 10:51:04;;;;;;;33.20;16.17;;;19.00;65.30;;;;;;4977803;28;20315;-91
2022/05/04 10:53:32;;;;;;;30.92;16.55;;;19.00;64.60;;;;;;4979532;28;20042;-87
2022/05/04 10:56:12;;;;;;;37.08;17.45;;;19.00;64.60;;;;;;4979599;28;20057;-88
2022/05/04 10:58:41;;;;;;;29.80;15.95;;;19.00;64.60;;;;;;4983654;28;20519;-89
2022/05/04 11:01:14;;;;;;;32.08;16.35;;;19.00;64.70;;;;;;4974462;28;20460;-89
2022/05/04 11:03:56;;;;;;;31.05;15.23;;;19.00;64.70;;;;;;4981381;28;20026;-88
2022/05/04 11:06:25;;;;;;;32.08;16.90;;;19.40;64.90;;;;;;4978833;28;20117;-88
2022/05/04 11:08:52;;;;;;;38.10;18.45;;;19.00;64.70;;;;;;4975218;28;20673;-88
2022/05/04 11:11:19;;;;;;;35.22;16.77;;;19.00;64.80;;;;;;4989636;28;20117;-88
2022/05/04 11:13:45;;;;;;;40.72;17.98;;;19.00;64.80;;;;;;4965079;28;20053;-87
2022/05/04 11:16:10;;;;;;;35.95;17.30;;;19.60;65.20;;;;;;4975942;28;20026;-88
2022/05/04 11:18:36;;;;;;;35.42;17.15;;;20.30;65.60;;;;;;4958807;28;20122;-88
2022/05/04 11:21:05;;;;;;;34.17;15.73;;;19.20;65.00;;;;;;4972250;28;20213;-88
2022/05/04 11:23:31;;;;;;;31.80;17.35;;;19.00;64.80;;;;;;4964930;28;20150;-87
2022/05/04 11:25:56;;;;;;;40.35;17.60;;;19.00;64.80;;;;;;4972592;28;20054;-87
2022/05/04 11:28:25;;;;;;;32.35;17.13;;;19.00;64.80;;;;;;4959990;28;20062;-87
2022/05/04 11:30:54;;;;;;;31.05;16.20;;;19.00;64.90;;;;;;4960676;28;20077;-87
2022/05/04 11:33:19;;;;;;;31.45;16.50;;;19.90;66.00;;;;;;4957339;28;20030;-87
2022/05/04 11:35:54;;;;;;;34.58;17.55;;;19.00;64.90;;;;;;4955858;28;20035;-88
2022/05/04 11:38:20;;;;;;;35.88;16.55;;;19.00;64.90;;;;;;4963539;28;20049;-87
2022/05/04 11:40:46;;;;;;;35.00;16.90;;;19.10;65.00;;;;;;4954464;28;20241;-88
2022/05/04 11:43:28;;;;;;;35.00;16.65;;;19.00;64.90;;;;;;4978134;28;20057;-87
2022/05/04 11:45:54;;;;;;;35.38;16.35;;;19.00;65.00;;;;;;4980459;28;20063;-87
2022/05/04 11:48:20;;;;;;;33.67;16.38;;;19.00;65.00;;;;;;4960828;28;20043;-87
2022/05/04 11:50:46;;;;;;;38.53;17.42;;;19.60;65.40;;;;;;4992175;28;20034;-88
2022/05/04 11:53:12;;;;;;;35.75;16.42;;;19.00;65.00;;;;;;4957811;28;20027;-88
2022/05/04 11:55:37;;;;;;;31.70;16.60;;;19.00;65.00;;;;;;4961278;28;20038;-87
2022/05/04 11:58:08;;;;;;;31.40;15.82;;;19.80;65.40;;;;;;4962231;28;20503;-88
2022/05/04 12:00:33;;;;;;;25.08;14.63;;;19.20;65.10;;;;;;4975019;28;20473;-87
2022/05/04 12:02:59;;;;;;;36.40;16.08;;;19.80;65.50;;;;;;4972737;28;20040;-88
2022/05/04 12:05:25;;;;;;;30.40;15.27;;;19.00;65.10;;;;;;4970015;28;20145;-87
2022/05/04 12:07:50;;;;;;;38.17;16.90;;;19.50;65.30;;;;;;4963028;28;20023;-88
2022/05/04 12:10:16;;;;;;;32.83;16.13;;;19.10;65.10;;;;;;4976602;28;20031;-87
2022/05/04 12:12:42;;;;;;;30.45;16.13;;;19.00;65.00;;;;;;4964532;28;20031;-88
2022/05/04 12:15:09;;;;;;;32.00;15.23;;;19.00;65.00;;;;;;4967100;28;20041;-87
2022/05/04 12:17:35;;;;;;;32.58;14.90;;;19.00;65.10;;;;;;4978284;28;20037;-88
2022/05/04 12:20:01;;;;;;;31.65;15.77;;;19.00;65.10;;;;;;4963733;28;20034;-89
2022/05/04 12:22:27;;;;;;;26.27;14.15;;;19.00;65.10;;;;;;4965037;28;20031;-88
2022/05/04 12:24:52;;;;;;;32.90;16.52;;;19.00;65.70;;;;;;4976966;28;20023;-88
2022/05/04 12:27:18;;;;;;;30.67;14.75;;;19.20;65.20;;;;;;4957975;28;20025;-88
2022/05/04 12:35:29;;;;;;;27.05;14.68;;;19.00;65.10;;;;;;4942488;28;20042;-88
2022/05/04 12:37:55;;;;;;;26.02;14.25;;;19.50;65.50;;;;;;4964726;28;20038;-87
2022/05/04 12:40:21;;;;;;;28.70;15.63;;;19.40;65.40;;;;;;4975423;28;20038;-88
2022/05/04 12:42:47;;;;;;;26.98;14.65;;;18.70;65.00;;;;;;4980401;28;20524;-88
2022/05/04 12:45:18;;;;;;;33.80;14.50;;;19.70;65.60;;;;;;4973999;28;20033;-88
2022/05/04 12:47:44;;;;;;;27.55;14.85;;;19.00;65.20;;;;;;4976466;28;20030;-88
2022/05/04 12:50:10;;;;;;;27.80;14.45;;;19.50;65.40;;;;;;4992823;28;20261;-89
2022/05/04 12:52:38;;;;;;;23.85;13.60;;;19.90;65.70;;;;;;4957250;28;20267;-88
2022/05/04 12:55:05;;;;;;;28.50;14.43;;;20.20;66.00;;;;;;4963421;28;20031;-88
2022/05/04 12:57:30;;;;;;;29.63;15.32;;;19.00;65.20;;;;;;4982382;28;20030;-89
2022/05/04 12:59:56;;;;;;;28.23;15.00;;;19.00;65.30;;;;;;4960298;28;20313;-89
2022/05/04 13:02:22;;;;;;;29.33;14.70;;;19.00;65.40;;;;;;4960985;28;20488;-88
2022/05/04 13:04:48;;;;;;;26.98;14.00;;;19.10;65.40;;;;;;4961962;28;20029;-89
2022/05/04 13:07:13;;;;;;;23.70;13.70;;;20.20;66.00;;;;;;4963787;28;20425;-89
2022/05/04 13:09:42;;;;;;;25.45;13.80;;;19.00;65.50;;;;;;4979639;28;20018;-89
2022/05/04 13:12:11;;;;;;;30.50;14.10;;;19.10;65.70;;;;;;4963051;28;20022;-88